Time;durP1;ratioP1;P1;durP2;ratioP2;P2;SDS_P1;SDS_P2;PMS_P1;PMS_P2;Temp;Humidity;BMP_temperature;BMP_pressure;BME280_temperature;BME280_humidity;BME280_pressure;Samples;Min_cycle;Max_cycle;Signal;HPM_P1;HPM_P2
2023/11/16 00:00:18;;;;;;;0.57;0.57;;;;;;;0.86;79.46;100457.09;5067347;28;20027;-66
2023/11/16 00:02:44;;;;;;;0.50;0.50;;;;;;;0.85;79.49;100450.25;5067359;28;20111;-65
2023/11/16 00:05:16;;;;;;;2.15;1.15;;;;;;;0.84;79.33;100444.28;5067079;28;20017;-66
2023/11/16 00:07:45;;;;;;;0.57;0.57;;;;;;;0.85;79.13;100445.13;5067160;28;20040;-65
2023/11/16 00:10:11;;;;;;;0.50;0.50;;;;;;;0.81;78.85;100441.63;5067106;28;20047;-65
2023/11/16 00:12:37;;;;;;;0.50;0.50;;;;;;;0.83;79.20;100452.75;5049163;28;20021;-66
2023/11/16 00:15:06;;;;;;;0.55;0.55;;;;;;;0.77;78.97;100446.59;5067100;28;20082;-65
2023/11/16 00:17:33;;;;;;;0.77;0.65;;;;;;;0.82;78.91;100455.25;5049039;28;20021;-65
2023/11/16 00:19:58;;;;;;;0.63;0.63;;;;;;;0.89;78.45;100459.75;5067102;28;20025;-66
2023/11/16 00:22:24;;;;;;;0.50;0.50;;;;;;;0.80;78.34;100446.69;5066961;28;20051;-64
2023/11/16 00:24:50;;;;;;;0.52;0.52;;;;;;;0.77;78.67;100451.69;5066883;28;20025;-65
2023/11/16 00:27:15;;;;;;;0.50;0.50;;;;;;;0.73;78.88;100450.72;5066691;28;20135;-65
2023/11/16 00:29:41;;;;;;;0.70;0.70;;;;;;;0.69;79.04;100444.63;5048939;28;20029;-66
2023/11/16 00:32:06;;;;;;;0.70;0.70;;;;;;;0.73;79.06;100448.16;5066859;28;20481;-66
2023/11/16 00:34:32;;;;;;;0.50;0.50;;;;;;;0.76;78.72;100445.72;5048736;28;20032;-66
2023/11/16 00:36:57;;;;;;;1.75;1.50;;;;;;;0.78;78.66;100455.97;5066672;28;20025;-65
2023/11/16 00:39:23;;;;;;;0.55;0.55;;;;;;;0.70;78.76;100448.91;5066555;28;20017;-65
2023/11/16 00:41:48;;;;;;;2.75;0.90;;;;;;;0.68;78.86;100447.13;5048592;28;20037;-65
2023/11/16 00:44:19;;;;;;;0.60;0.60;;;;;;;0.57;78.77;100429.78;5066499;28;20032;-65
2023/11/16 00:46:44;;;;;;;0.40;0.40;;;;;;;0.64;79.05;100446.16;5066439;28;20028;-65
2023/11/16 00:49:10;;;;;;;1.83;1.20;;;;;;;0.65;78.91;100447.91;5066227;28;20025;-65
2023/11/16 00:51:37;;;;;;;0.93;0.80;;;;;;;0.61;78.87;100440.94;5066237;28;20036;-66
2023/11/16 00:54:02;;;;;;;0.93;0.93;;;;;;;0.59;79.08;100438.34;5066275;28;20021;-65
2023/11/16 00:56:28;;;;;;;0.50;0.50;;;;;;;0.56;79.26;100445.06;5048074;28;20024;-66
2023/11/16 00:58:55;;;;;;;1.20;0.77;;;;;;;0.54;78.79;100441.59;5048399;28;20078;-66
2023/11/16 01:01:22;;;;;;;0.50;0.50;;;;;;;0.51;78.94;100437.25;5066130;28;20471;-65
2023/11/16 01:03:49;;;;;;;0.50;0.50;;;;;;;0.47;79.15;100438.81;5066259;28;20051;-65
2023/11/16 01:06:15;;;;;;;0.60;0.60;;;;;;;0.45;78.69;100442.13;5047790;28;20021;-67
2023/11/16 01:08:41;;;;;;;0.68;0.63;;;;;;;0.45;79.13;100440.44;5065685;28;20056;-66
2023/11/16 01:11:12;;;;;;;0.50;0.50;;;;;;;0.43;79.32;100447.19;5047792;28;20028;-65
2023/11/16 01:13:41;;;;;;;1.02;1.02;;;;;;;0.41;79.34;100448.84;5048055;28;20057;-65
2023/11/16 01:16:14;;;;;;;0.50;0.50;;;;;;;0.39;79.68;100447.91;5066427;28;20036;-65
2023/11/16 01:18:48;;;;;;;0.55;0.55;;;;;;;0.32;79.39;100439.16;5047835;28;20025;-65
2023/11/16 01:21:14;;;;;;;0.88;0.70;;;;;;;0.32;79.53;100448.53;5065577;28;20021;-65
2023/11/16 01:23:39;;;;;;;0.43;0.43;;;;;;;0.27;79.68;100437.28;5065767;28;20112;-66
2023/11/16 01:26:13;;;;;;;0.65;0.65;;;;;;;0.31;79.63;100446.78;5065683;28;20020;-66
2023/11/16 01:28:45;;;;;;;0.50;0.50;;;;;;;0.24;79.69;100433.78;5065652;28;20481;-66
2023/11/16 01:31:10;;;;;;;;;;;;;;;0.25;79.89;100437.22;5066064;28;20037;-66
2023/11/16 01:33:36;;;;;;;0.50;0.50;;;;;;;0.16;79.90;100435.22;5065662;28;20043;-65
2023/11/16 01:36:03;;;;;;;1.02;1.02;;;;;;;0.17;79.84;100430.97;5047343;28;20021;-66
2023/11/16 01:38:30;;;;;;;0.80;0.80;;;;;;;0.15;79.93;100435.16;5065098;28;20043;-66
2023/11/16 01:40:56;;;;;;;0.60;0.60;;;;;;;0.11;79.90;100441.88;5047352;28;20028;-66
2023/11/16 01:43:22;;;;;;;0.80;0.80;;;;;;;0.12;80.07;100446.13;5065381;28;20040;-65
2023/11/16 01:45:48;;;;;;;1.17;1.10;;;;;;;0.06;80.25;100436.59;5065484;28;20021;-66
2023/11/16 01:48:22;;;;;;;0.50;0.50;;;;;;;0.09;80.12;100435.81;5065026;28;20028;-66
2023/11/16 01:50:47;;;;;;;0.55;0.55;;;;;;;0.08;80.31;100446.88;5065225;28;20021;-66
2023/11/16 01:53:13;;;;;;;1.73;1.63;;;;;;;0.03;80.65;100440.72;5065284;28;20043;-66
2023/11/16 01:55:46;;;;;;;0.90;0.90;;;;;;;0.08;80.43;100449.41;5065200;28;20485;-66
2023/11/16 01:58:13;;;;;;;0.50;0.50;;;;;;;0.06;80.46;100451.91;5065133;28;20025;-65
2023/11/16 02:00:42;;;;;;;0.40;0.40;;;;;;;0.01;80.40;100442.34;5065007;28;20024;-66
2023/11/16 02:03:08;;;;;;;0.50;0.50;;;;;;;-0.01;80.48;100448.28;5047017;28;20017;-65
2023/11/16 02:05:36;;;;;;;1.30;1.20;;;;;;;-0.02;80.52;100454.16;5046952;28;20029;-65
2023/11/16 02:08:06;;;;;;;0.55;0.55;;;;;;;-0.03;80.65;100459.22;5064560;28;20025;-66
2023/11/16 02:10:32;;;;;;;1.63;1.52;;;;;;;-0.01;80.84;100458.47;5064909;28;20454;-65
2023/11/16 02:13:07;;;;;;;0.50;0.50;;;;;;;-0.08;81.07;100453.94;5064856;28;20030;-65
2023/11/16 02:15:33;;;;;;;1.33;1.23;;;;;;;-0.01;80.71;100455.94;5064964;28;20025;-65
2023/11/16 02:18:02;;;;;;;0.85;0.82;;;;;;;0.01;80.96;100465.31;5064814;28;20031;-65
2023/11/16 02:20:29;;;;;;;0.60;0.60;;;;;;;-0.03;80.85;100465.19;5064758;28;20028;-65
2023/11/16 02:22:55;;;;;;;1.95;1.23;;;;;;;-0.04;81.04;100466.03;5064786;28;20025;-65
2023/11/16 02:25:21;;;;;;;0.43;0.43;;;;;;;-0.01;81.03;100470.38;5064833;28;20025;-66
2023/11/16 02:27:47;;;;;;;0.50;0.50;;;;;;;-0.02;80.92;100460.97;5064761;28;20063;-65
2023/11/16 02:30:12;;;;;;;1.95;1.85;;;;;;;-0.04;80.99;100460.94;5064916;28;20017;-65
2023/11/16 02:32:38;;;;;;;1.30;1.20;;;;;;;-0.04;81.05;100467.69;5064753;28;20538;-65
2023/11/16 02:35:04;;;;;;;3.92;1.08;;;;;;;-0.05;80.91;100469.38;5063730;28;20044;-67
2023/11/16 02:37:30;;;;;;;0.50;0.50;;;;;;;-0.04;81.06;100462.59;5064799;28;20040;-65
2023/11/16 02:39:56;;;;;;;0.50;0.50;;;;;;;-0.05;80.84;100474.47;5046869;28;20048;-66
2023/11/16 02:42:21;;;;;;;0.75;0.75;;;;;;;-0.05;80.89;100471.06;5046668;28;20036;-65
2023/11/16 02:44:49;;;;;;;2.05;1.35;;;;;;;-0.10;81.03;100473.47;5064768;28;20029;-65
2023/11/16 02:47:15;;;;;;;0.68;0.68;;;;;;;-0.10;80.81;100475.13;5064420;28;20029;-65
2023/11/16 02:49:42;;;;;;;0.68;0.68;;;;;;;-0.11;80.95;100464.06;5066753;28;20109;-66
2023/11/16 02:52:10;;;;;;;0.55;0.55;;;;;;;-0.14;81.07;100475.03;5068303;28;20033;-66
2023/11/16 02:54:37;;;;;;;0.70;0.70;;;;;;;-0.19;81.00;100473.97;5068655;28;20025;-65
2023/11/16 02:57:04;;;;;;;0.70;0.70;;;;;;;-0.10;80.95;100475.13;5068464;28;20021;-66
2023/11/16 02:59:31;;;;;;;0.85;0.85;;;;;;;-0.13;81.18;100468.25;5068466;28;20071;-66
2023/11/16 03:01:58;;;;;;;0.70;0.70;;;;;;;-0.10;80.96;100475.13;5068304;28;20550;-66
2023/11/16 03:04:23;;;;;;;0.70;0.70;;;;;;;-0.12;81.08;100477.63;5068341;28;20020;-65
2023/11/16 03:06:49;;;;;;;0.60;0.60;;;;;;;-0.13;80.88;100473.34;5068178;28;20054;-66
2023/11/16 03:09:16;;;;;;;0.50;0.50;;;;;;;-0.11;80.83;100473.41;5049879;28;20072;-65
2023/11/16 03:11:41;;;;;;;1.20;1.13;;;;;;;-0.10;80.92;100481.13;5068351;28;20028;-66
2023/11/16 03:14:08;;;;;;;1.08;1.05;;;;;;;-0.09;80.80;100481.97;5068131;28;20729;-66
2023/11/16 03:16:39;;;;;;;0.70;0.70;;;;;;;-0.11;80.73;100474.25;5068230;28;20048;-66
2023/11/16 03:19:05;;;;;;;1.20;1.02;;;;;;;-0.11;80.83;100469.16;5068304;28;20077;-66
2023/11/16 03:21:30;;;;;;;0.50;0.50;;;;;;;-0.08;80.88;100476.06;5067865;28;20084;-65
2023/11/16 03:23:55;;;;;;;0.50;0.50;;;;;;;-0.06;80.86;100471.88;5050247;28;20025;-65
2023/11/16 03:26:21;;;;;;;0.65;0.65;;;;;;;-0.08;80.88;100473.53;5067787;28;20032;-66
2023/11/16 03:28:49;;;;;;;0.60;0.60;;;;;;;-0.04;80.79;100471.13;5067735;28;20032;-65
2023/11/16 03:31:14;;;;;;;0.63;0.55;;;;;;;-0.04;80.72;100458.38;5067909;28;20021;-65
2023/11/16 03:33:40;;;;;;;0.55;0.55;;;;;;;-0.05;80.55;100463.41;5067861;28;20044;-65
2023/11/16 03:36:06;;;;;;;1.48;1.00;;;;;;;-0.03;80.67;100452.44;5067808;28;20503;-66
2023/11/16 03:38:34;;;;;;;0.60;0.60;;;;;;;-0.02;80.75;100466.94;5067707;28;20025;-65
2023/11/16 03:41:00;;;;;;;0.63;0.60;;;;;;;-0.03;80.42;100457.53;5067402;28;20051;-66
2023/11/16 03:43:25;;;;;;;0.50;0.50;;;;;;;-0.08;80.76;100451.41;5067575;28;20469;-65
2023/11/16 03:45:51;;;;;;;0.50;0.50;;;;;;;0.02;80.82;100465.38;5067473;28;20045;-64
2023/11/16 03:48:16;;;;;;;1.63;1.52;;;;;;;0.06;80.00;100463.81;5067408;28;20105;-65
2023/11/16 03:50:41;;;;;;;0.70;0.70;;;;;;;-0.03;80.34;100460.09;5049340;28;20017;-66
2023/11/16 03:53:07;;;;;;;0.50;0.50;;;;;;;-0.05;80.58;100458.31;5067480;28;20552;-66
2023/11/16 03:55:32;;;;;;;0.77;0.77;;;;;;;-0.05;80.69;100468.53;5049513;28;20056;-66
2023/11/16 03:57:57;;;;;;;0.70;0.70;;;;;;;-0.04;80.67;100466.03;5067491;28;20090;-65
2023/11/16 04:00:25;;;;;;;0.50;0.50;;;;;;;0.13;80.00;100463.19;5066857;28;20021;-66
2023/11/16 04:02:51;;;;;;;1.85;1.75;;;;;;;0.05;80.27;100462.91;5067169;28;20045;-66
2023/11/16 04:05:18;;;;;;;0.60;0.60;;;;;;;0.05;80.45;100465.47;5067730;28;20028;-65
2023/11/16 04:07:43;;;;;;;0.75;0.75;;;;;;;0.11;80.30;100454.63;5067836;28;20029;-65
2023/11/16 04:10:12;;;;;;;1.20;1.10;;;;;;;0.09;80.37;100459.69;5067173;28;20083;-66
2023/11/16 04:12:39;;;;;;;0.50;0.50;;;;;;;-0.01;80.39;100444.84;5067074;28;20032;-65
2023/11/16 04:15:06;;;;;;;0.40;0.40;;;;;;;0.09;80.38;100463.91;5066897;28;20024;-66
2023/11/16 04:17:31;;;;;;;0.93;0.90;;;;;;;0.11;80.40;100454.63;5067042;28;20043;-65
2023/11/16 04:19:57;;;;;;;0.50;0.50;;;;;;;0.10;80.44;100452.88;5066913;28;20537;-66
2023/11/16 04:22:23;;;;;;;0.70;0.70;;;;;;;0.14;80.41;100451.31;5067001;28;20021;-66
2023/11/16 04:24:52;;;;;;;0.50;0.50;;;;;;;0.14;80.33;100462.41;5048751;28;20091;-66
2023/11/16 04:27:18;;;;;;;0.50;0.50;;;;;;;0.13;80.26;100445.31;5066872;28;20036;-66
2023/11/16 04:29:45;;;;;;;0.50;0.50;;;;;;;0.16;80.25;100452.22;5066621;28;20029;-65
2023/11/16 04:32:11;;;;;;;0.90;0.70;;;;;;;0.26;79.96;100453.44;5066817;28;20025;-65
2023/11/16 04:34:37;;;;;;;1.05;0.82;;;;;;;0.12;80.07;100441.03;5048846;28;20036;-65
2023/11/16 04:37:07;;;;;;;0.50;0.50;;;;;;;0.30;79.57;100460.38;5066431;28;20017;-65
2023/11/16 04:39:32;;;;;;;0.50;0.50;;;;;;;0.23;79.70;100452.50;5066602;28;20017;-65
2023/11/16 04:41:57;;;;;;;0.50;0.50;;;;;;;0.29;79.31;100459.50;5048415;28;20127;-65
2023/11/16 04:44:23;;;;;;;0.70;0.70;;;;;;;0.24;79.71;100446.56;5066574;28;20101;-65
2023/11/16 04:46:51;;;;;;;0.70;0.70;;;;;;;0.28;79.85;100462.00;5048364;28;20477;-65
2023/11/16 04:49:18;;;;;;;0.63;0.63;;;;;;;0.28;80.04;100446.66;5066257;28;20382;-65
2023/11/16 04:51:44;;;;;;;0.50;0.50;;;;;;;0.35;79.86;100461.41;5066347;28;20051;-67
2023/11/16 04:54:10;;;;;;;0.80;0.80;;;;;;;0.34;79.84;100454.53;5066317;28;20092;-67
2023/11/16 04:56:36;;;;;;;0.50;0.50;;;;;;;0.30;79.96;100439.94;5066170;28;20021;-66
2023/11/16 04:59:03;;;;;;;0.50;0.50;;;;;;;0.41;79.59;100453.94;5066180;28;20028;-65
2023/11/16 05:01:29;;;;;;;0.52;0.52;;;;;;;0.45;79.46;100455.78;5065847;28;20029;-63
2023/11/16 05:03:54;;;;;;;0.50;0.50;;;;;;;0.44;79.55;100458.28;5066385;28;20028;-66
2023/11/16 05:06:20;;;;;;;0.60;0.60;;;;;;;0.43;79.51;100449.75;5066052;28;20080;-65
2023/11/16 05:08:45;;;;;;;0.70;0.70;;;;;;;0.56;79.30;100465.50;5065768;28;20044;-67
2023/11/16 05:11:10;;;;;;;0.70;0.70;;;;;;;0.52;79.31;100450.88;5065121;28;20086;-66
2023/11/16 05:13:36;;;;;;;0.50;0.50;;;;;;;0.51;79.36;100451.69;5065842;28;20059;-66
2023/11/16 05:16:03;;;;;;;0.50;0.50;;;;;;;0.55;79.20;100456.09;5065776;28;20025;-67
2023/11/16 05:18:29;;;;;;;0.60;0.60;;;;;;;0.49;79.41;100439.75;5065861;28;20092;-64
2023/11/16 05:20:54;;;;;;;0.70;0.70;;;;;;;0.57;79.43;100454.47;5065386;28;20029;-66
2023/11/16 05:23:19;;;;;;;0.60;0.60;;;;;;;0.56;79.35;100456.13;5065912;28;20049;-66
2023/11/16 05:25:45;;;;;;;0.63;0.63;;;;;;;0.59;79.46;100451.13;5047834;28;20021;-66
2023/11/16 05:28:11;;;;;;;1.08;1.00;;;;;;;0.59;79.54;100451.13;5065561;28;20370;-65
2023/11/16 05:30:37;;;;;;;0.55;0.55;;;;;;;0.74;78.89;100458.44;5047716;28;20375;-61
2023/11/16 05:33:03;;;;;;;0.82;0.82;;;;;;;0.64;79.16;100456.38;5065528;28;20028;-65
2023/11/16 05:35:29;;;;;;;0.75;0.75;;;;;;;0.68;79.17;100459.91;5065198;28;20024;-67
2023/11/16 05:37:55;;;;;;;0.70;0.70;;;;;;;0.65;79.14;100455.59;5047313;28;20028;-66
2023/11/16 05:40:20;;;;;;;1.27;1.23;;;;;;;0.66;79.50;100448.75;5064955;28;20024;-66
2023/11/16 05:42:46;;;;;;;1.20;1.20;;;;;;;0.64;79.40;100453.84;5065492;28;20032;-66
2023/11/16 05:45:12;;;;;;;0.50;0.50;;;;;;;0.71;79.38;100450.69;5065659;28;20504;-66
2023/11/16 05:47:38;;;;;;;0.50;0.50;;;;;;;0.81;78.74;100464.63;5065524;28;20025;-66
2023/11/16 05:50:05;;;;;;;1.15;1.05;;;;;;;0.70;78.96;100455.75;5065232;28;20025;-65
2023/11/16 05:52:31;;;;;;;0.50;0.50;;;;;;;0.68;79.05;100454.81;5065330;28;20389;-66
2023/11/16 05:54:56;;;;;;;1.00;1.00;;;;;;;0.59;79.25;100440.91;5065026;28;20085;-66
2023/11/16 05:57:21;;;;;;;0.90;0.90;;;;;;;0.64;79.16;100448.72;5047109;28;20036;-66
2023/11/16 05:59:47;;;;;;;0.60;0.60;;;;;;;0.56;79.18;100440.81;5065155;28;20112;-66
2023/11/16 06:02:14;;;;;;;0.60;0.60;;;;;;;0.71;78.92;100454.91;5065023;28;20079;-67
2023/11/16 06:04:40;;;;;;;0.50;0.50;;;;;;;0.72;78.93;100446.41;5065083;28;20033;-67
2023/11/16 06:07:05;;;;;;;0.60;0.60;;;;;;;0.71;79.03;100454.91;5047005;28;20039;-67
2023/11/16 06:09:31;;;;;;;0.50;0.50;;;;;;;0.78;78.85;100449.19;5064305;28;20049;-66
2023/11/16 06:11:58;;;;;;;0.50;0.50;;;;;;;0.78;78.83;100458.53;5064858;28;20064;-67
2023/11/16 06:14:24;;;;;;;0.50;0.50;;;;;;;0.81;79.25;100453.53;5065129;28;20482;-67
2023/11/16 06:16:50;;;;;;;1.02;1.02;;;;;;;0.82;78.98;100457.81;5047060;28;20024;-66
2023/11/16 06:19:15;;;;;;;1.20;1.20;;;;;;;0.84;78.66;100462.16;5064948;28;20028;-67
2023/11/16 06:21:41;;;;;;;0.45;0.45;;;;;;;0.86;78.74;100459.66;5064764;28;20021;-67
2023/11/16 06:24:10;;;;;;;0.90;0.88;;;;;;;0.84;78.60;100458.75;5047092;28;20039;-66
2023/11/16 06:26:35;;;;;;;0.50;0.50;;;;;;;0.83;78.88;100457.00;5047079;28;20021;-67
2023/11/16 06:29:00;;;;;;;0.50;0.50;;;;;;;0.87;78.55;100453.72;5064799;28;20036;-66
2023/11/16 06:31:26;;;;;;;0.50;0.50;;;;;;;1.02;77.87;100462.69;5064600;28;20040;-66
2023/11/16 06:33:52;;;;;;;0.60;0.60;;;;;;;0.97;78.06;100462.56;5065117;28;20025;-65
2023/11/16 06:36:17;;;;;;;0.50;0.50;;;;;;;0.96;77.84;100466.78;5064636;28;20027;-65
2023/11/16 06:38:43;;;;;;;1.88;1.77;;;;;;;0.90;77.97;100450.38;5064916;28;20042;-65
2023/11/16 06:41:09;;;;;;;0.50;0.50;;;;;;;0.82;78.30;100461.25;5064416;28;20029;-65
2023/11/16 06:43:34;;;;;;;0.50;0.50;;;;;;;0.91;77.85;100463.22;5046767;28;20025;-66
2023/11/16 06:46:02;;;;;;;0.80;0.80;;;;;;;0.97;77.63;100466.00;5047014;28;20032;-66
2023/11/16 06:48:30;;;;;;;0.50;0.50;;;;;;;0.94;77.23;100450.53;5064974;28;20108;-65
2023/11/16 06:50:58;;;;;;;0.50;0.50;;;;;;;0.88;77.73;100452.88;5064636;28;20023;-66
2023/11/16 06:53:24;;;;;;;0.70;0.70;;;;;;;0.84;78.07;100453.63;5064718;28;20108;-65
2023/11/16 06:55:52;;;;;;;0.50;0.50;;;;;;;0.85;77.96;100451.13;5064795;28;20028;-66
2023/11/16 06:58:20;;;;;;;0.90;0.90;;;;;;;0.87;77.97;100443.50;5064753;28;20028;-66
2023/11/16 07:00:50;;;;;;;1.85;1.05;;;;;;;1.06;77.50;100456.84;5065040;28;20032;-66
2023/11/16 07:03:15;;;;;;;0.98;0.88;;;;;;;0.90;77.61;100455.50;5064806;28;20028;-66
2023/11/16 07:05:41;;;;;;;0.60;0.60;;;;;;;0.99;77.64;100466.88;5064495;28;20056;-66
2023/11/16 07:08:06;;;;;;;0.82;0.82;;;;;;;0.99;77.65;100464.34;5064624;28;20041;-65
2023/11/16 07:10:32;;;;;;;0.77;0.77;;;;;;;0.95;77.96;100467.63;5064853;28;20369;-65
2023/11/16 07:13:01;;;;;;;0.77;0.77;;;;;;;0.98;78.15;100466.84;5064766;28;20044;-66
2023/11/16 07:15:28;;;;;;;0.93;0.93;;;;;;;1.02;78.14;100466.13;5046717;28;20087;-65
2023/11/16 07:17:54;;;;;;;1.23;1.13;;;;;;;1.01;78.17;100458.41;5046885;28;20025;-66
2023/11/16 07:20:21;;;;;;;1.13;1.00;;;;;;;1.05;78.25;100462.81;5064697;28;20428;-66
2023/11/16 07:22:47;;;;;;;0.50;0.50;;;;;;;1.09;78.16;100464.63;5064381;28;20028;-66
2023/11/16 07:25:14;;;;;;;0.60;0.60;;;;;;;1.05;77.92;100457.69;5064747;28;20468;-66
2023/11/16 07:27:39;;;;;;;1.02;0.90;;;;;;;1.07;78.09;100456.91;5064605;28;20032;-66
2023/11/16 07:30:05;;;;;;;0.60;0.60;;;;;;;1.05;78.12;100463.69;5064588;28;20056;-66
2023/11/16 07:32:31;;;;;;;0.80;0.80;;;;;;;1.05;78.12;100452.56;5046362;28;20024;-66
2023/11/16 07:34:58;;;;;;;0.88;0.88;;;;;;;1.09;78.32;100469.72;5065489;28;20033;-66
2023/11/16 07:37:23;;;;;;;0.80;0.80;;;;;;;1.09;78.23;100469.72;5049841;28;20021;-66
2023/11/16 07:39:49;;;;;;;1.05;0.90;;;;;;;1.09;78.26;100469.72;5068102;28;20085;-65
2023/11/16 07:42:14;;;;;;;0.60;0.60;;;;;;;1.14;78.11;100468.19;5049916;28;20107;-65
2023/11/16 07:44:43;;;;;;;0.90;0.90;;;;;;;1.15;78.06;100482.72;5067919;28;20032;-67
2023/11/16 07:47:13;;;;;;;1.02;1.02;;;;;;;1.11;78.28;100470.66;5067952;28;20056;-66
2023/11/16 07:49:39;;;;;;;0.60;0.60;;;;;;;1.15;78.02;100479.31;5049662;28;20108;-66
2023/11/16 07:52:05;;;;;;;1.60;1.50;;;;;;;1.16;78.15;100483.59;5049563;28;20055;-66
2023/11/16 07:54:31;;;;;;;1.33;0.75;;;;;;;1.16;78.26;100469.13;5049803;28;20032;-66
2023/11/16 07:57:01;;;;;;;1.48;1.13;;;;;;;1.21;78.12;100482.94;5049731;28;20084;-66
2023/11/16 07:59:31;;;;;;;0.60;0.60;;;;;;;1.26;78.11;100467.72;5067492;28;20158;-66
2023/11/16 08:02:00;;;;;;;0.80;0.57;;;;;;;1.23;78.04;100467.63;5049346;28;20021;-65
2023/11/16 08:04:31;;;;;;;0.73;0.73;;;;;;;1.26;78.07;100487.31;5067464;28;20051;-65
2023/11/16 08:06:58;;;;;;;0.70;0.63;;;;;;;1.28;78.13;100501.03;5067265;28;20025;-66
2023/11/16 08:09:26;;;;;;;0.63;0.63;;;;;;;1.26;78.19;100492.44;5067157;28;20036;-66
2023/11/16 08:11:53;;;;;;;0.93;0.93;;;;;;;1.30;78.06;100495.13;5049269;28;20025;-66
2023/11/16 08:14:25;;;;;;;0.50;0.50;;;;;;;1.30;77.95;100476.34;5049340;28;20025;-65
2023/11/16 08:16:55;;;;;;;0.65;0.65;;;;;;;1.28;78.14;100472.88;5067298;28;20469;-65
2023/11/16 08:19:21;;;;;;;1.00;0.95;;;;;;;1.29;78.34;100478.06;5067224;28;20469;-66
2023/11/16 08:21:46;;;;;;;0.50;0.50;;;;;;;1.28;78.30;100485.69;5049138;28;20063;-66
2023/11/16 08:24:15;;;;;;;1.05;1.05;;;;;;;1.28;78.18;100485.69;5067369;28;20021;-65
2023/11/16 08:26:43;;;;;;;0.57;0.57;;;;;;;1.29;78.00;100488.28;5067236;28;20025;-66
2023/11/16 08:29:09;;;;;;;0.50;0.50;;;;;;;1.26;78.11;100482.19;5067038;28;20473;-65
2023/11/16 08:31:35;;;;;;;0.60;0.60;;;;;;;1.26;78.28;100492.44;5067007;28;20305;-65
2023/11/16 08:34:01;;;;;;;1.20;1.08;;;;;;;1.26;78.06;100487.31;5067036;28;20024;-65
2023/11/16 08:36:26;;;;;;;0.68;0.68;;;;;;;1.23;78.10;100486.38;5067199;28;20032;-65
2023/11/16 08:38:52;;;;;;;0.50;0.50;;;;;;;1.25;78.07;100498.38;5066835;28;20029;-65
2023/11/16 08:41:17;;;;;;;0.50;0.50;;;;;;;1.20;78.28;100495.63;5066669;28;20025;-65
2023/11/16 08:43:44;;;;;;;0.50;0.50;;;;;;;1.22;78.40;100507.69;5066995;28;20077;-67
2023/11/16 08:46:11;;;;;;;0.73;0.73;;;;;;;1.26;77.99;100497.53;5065886;28;20025;-65
2023/11/16 08:48:37;;;;;;;0.80;0.80;;;;;;;1.24;77.95;100497.50;5066402;28;20029;-66
2023/11/16 08:51:05;;;;;;;0.52;0.52;;;;;;;1.18;78.23;100485.34;5066536;28;20036;-65
2023/11/16 08:53:42;;;;;;;0.50;0.50;;;;;;;1.21;78.16;100498.28;5048701;28;20107;-65
2023/11/16 08:56:07;;;;;;;1.77;0.60;;;;;;;1.15;78.46;100500.63;5066605;28;20088;-65
2023/11/16 08:58:37;;;;;;;0.70;0.70;;;;;;;1.19;78.19;100510.13;5066525;28;20028;-66
2023/11/16 09:01:06;;;;;;;0.50;0.50;;;;;;;1.13;78.15;100497.16;5066647;28;20017;-65
2023/11/16 09:03:36;;;;;;;0.95;0.90;;;;;;;1.14;78.45;100504.00;5066423;28;20029;-65
2023/11/16 09:06:05;;;;;;;0.60;0.60;;;;;;;1.13;78.39;100506.50;5066216;28;20331;-65
2023/11/16 09:08:33;;;;;;;0.50;0.50;;;;;;;1.13;78.22;100502.28;5066291;28;20045;-66
2023/11/16 09:10:59;;;;;;;1.15;1.00;;;;;;;1.13;78.47;100509.94;5048326;28;20033;-65
2023/11/16 09:13:24;;;;;;;0.70;0.70;;;;;;;1.12;78.50;100510.75;5066158;28;20451;-66
2023/11/16 09:15:50;;;;;;;0.60;0.60;;;;;;;1.13;78.65;100502.28;5066434;28;20032;-66
2023/11/16 09:18:16;;;;;;;0.57;0.57;;;;;;;1.15;78.72;100505.72;5066265;28;20080;-64
2023/11/16 09:20:45;;;;;;;0.73;0.65;;;;;;;1.13;78.55;100484.38;5048497;28;20047;-65
2023/11/16 09:23:12;;;;;;;0.60;0.60;;;;;;;1.25;78.56;100506.03;5065956;28;20484;-66
2023/11/16 09:25:38;;;;;;;0.60;0.60;;;;;;;1.17;78.57;100501.53;5064741;28;20035;-65
2023/11/16 09:28:06;;;;;;;1.13;0.93;;;;;;;1.21;78.69;100495.72;5048313;28;20021;-66
2023/11/16 09:30:32;;;;;;;0.55;0.55;;;;;;;1.26;78.56;100505.22;5065994;28;20017;-66
2023/11/16 09:32:59;;;;;;;0.60;0.60;;;;;;;1.25;78.74;100506.91;5065951;28;20028;-65
2023/11/16 09:35:25;;;;;;;1.10;1.05;;;;;;;1.26;78.68;100497.53;5048110;28;20017;-66
2023/11/16 09:37:55;;;;;;;0.70;0.70;;;;;;;1.26;78.76;100493.31;5065527;28;20084;-66
2023/11/16 09:40:30;;;;;;;0.60;0.60;;;;;;;1.20;78.86;100482.84;5065809;28;20031;-65
2023/11/16 09:42:57;;;;;;;0.50;0.50;;;;;;;1.18;78.66;100487.91;5065917;28;20080;-66
2023/11/16 09:45:29;;;;;;;0.50;0.50;;;;;;;1.28;78.70;100494.19;5047987;28;20043;-65
2023/11/16 09:48:10;;;;;;;0.75;0.75;;;;;;;1.28;78.74;100490.78;5065803;28;20035;-65
2023/11/16 09:50:42;;;;;;;0.85;0.85;;;;;;;1.27;78.83;100487.34;5065763;28;20025;-66
2023/11/16 09:53:13;;;;;;;1.25;0.90;;;;;;;1.31;78.83;100493.44;5065580;28;20039;-65
2023/11/16 09:55:49;;;;;;;0.60;0.60;;;;;;;1.27;78.68;100473.69;5065562;28;20080;-66
2023/11/16 09:58:23;;;;;;;1.20;1.10;;;;;;;1.23;78.94;100471.03;5047395;28;20048;-65
2023/11/16 10:00:57;;;;;;;1.25;0.80;;;;;;;1.23;78.88;100485.53;5065630;28;20052;-65
2023/11/16 10:03:30;;;;;;;1.10;1.10;;;;;;;1.26;78.75;100483.06;5065626;28;20017;-66
2023/11/16 10:05:57;;;;;;;0.50;0.50;;;;;;;1.23;78.99;100486.38;5065361;28;20021;-65
2023/11/16 10:08:23;;;;;;;0.70;0.70;;;;;;;1.21;79.01;100471.81;5065296;28;20041;-66
2023/11/16 10:11:00;;;;;;;0.75;0.75;;;;;;;1.29;78.86;100482.28;5065565;28;20077;-65
2023/11/16 10:13:27;;;;;;;1.02;1.02;;;;;;;1.23;79.16;100477.88;5047448;28;20106;-66
2023/11/16 10:15:53;;;;;;;0.70;0.70;;;;;;;1.26;79.09;100466.84;5047416;28;20048;-66
2023/11/16 10:18:20;;;;;;;0.80;0.80;;;;;;;1.27;79.14;100483.91;5065246;28;20031;-65
2023/11/16 10:20:45;;;;;;;0.73;0.68;;;;;;;1.30;78.97;100472.09;5047425;28;20044;-66
2023/11/16 10:23:12;;;;;;;0.60;0.60;;;;;;;1.29;78.96;100472.06;5047086;28;20028;-65
2023/11/16 10:25:38;;;;;;;1.30;0.82;;;;;;;1.33;78.94;100479.00;5047251;28;20033;-66
2023/11/16 10:28:33;;;;;;;0.57;0.57;;;;;;;1.39;79.08;100473.22;5065578;28;20150;-64
2023/11/16 10:30:59;;;;;;;0.50;0.50;;;;;;;1.35;78.91;100467.13;5056522;28;20037;-65
2023/11/16 10:33:28;;;;;;;0.93;0.93;;;;;;;1.40;79.07;100472.38;5065287;28;20020;-65
2023/11/16 10:36:01;;;;;;;1.10;1.10;;;;;;;1.39;79.00;100470.66;5064814;28;20045;-65
2023/11/16 10:38:32;;;;;;;0.60;0.60;;;;;;;1.39;78.82;100473.22;5065166;28;20029;-65
2023/11/16 10:40:58;;;;;;;0.80;0.80;;;;;;;1.42;78.64;100471.59;5047104;28;20021;-65
2023/11/16 10:43:26;;;;;;;0.70;0.70;;;;;;;1.35;78.55;100460.31;5065034;28;20020;-66
2023/11/16 10:45:53;;;;;;;0.57;0.57;;;;;;;1.47;78.40;100467.50;5065006;28;20101;-66
2023/11/16 10:48:19;;;;;;;1.25;1.17;;;;;;;1.50;78.29;100465.84;5064909;28;20106;-65
2023/11/16 10:50:45;;;;;;;0.60;0.60;;;;;;;1.50;78.15;100469.28;5065068;28;20021;-66
2023/11/16 10:53:23;;;;;;;1.33;0.70;;;;;;;1.52;78.42;100469.34;5064688;28;20035;-66
2023/11/16 10:55:57;;;;;;;1.67;1.58;;;;;;;1.47;78.34;100461.53;5064851;28;20091;-66
2023/11/16 10:58:29;;;;;;;0.50;0.50;;;;;;;1.54;78.20;100493.25;5047326;28;20048;-66
2023/11/16 11:01:05;;;;;;;0.60;0.60;;;;;;;1.61;77.52;100454.25;5065059;28;20424;-67
2023/11/16 11:03:33;;;;;;;1.25;0.88;;;;;;;1.58;77.76;100461.84;5064782;28;20397;-65
2023/11/16 11:06:01;;;;;;;0.50;0.50;;;;;;;1.52;77.88;100454.81;5064686;28;20028;-66
2023/11/16 11:08:42;;;;;;;0.65;0.65;;;;;;;1.58;77.98;100452.44;5046331;28;20506;-66
2023/11/16 11:11:10;;;;;;;1.65;1.55;;;;;;;1.59;78.04;100468.69;5067633;28;20036;-66
2023/11/16 11:13:43;;;;;;;1.70;0.82;;;;;;;1.61;77.96;100452.53;5068680;28;20029;-66
2023/11/16 11:16:14;;;;;;;0.65;0.65;;;;;;;1.71;77.68;100455.38;5050775;28;20024;-66
2023/11/16 11:18:52;;;;;;;1.30;1.17;;;;;;;1.72;77.80;100455.44;5068744;28;20029;-66
2023/11/16 11:21:22;;;;;;;1.35;1.25;;;;;;;1.80;77.27;100457.31;5068247;28;20025;-66
2023/11/16 11:24:01;;;;;;;1.05;0.70;;;;;;;1.78;77.86;100462.41;5068527;28;20035;-65
2023/11/16 11:26:50;;;;;;;0.60;0.60;;;;;;;1.73;77.14;100467.41;5050568;28;20029;-66
2023/11/16 11:29:17;;;;;;;0.90;0.85;;;;;;;1.71;77.49;100458.78;5068414;28;20032;-66
2023/11/16 11:32:03;;;;;;;1.50;1.00;;;;;;;1.69;77.60;100462.16;5068239;28;20037;-66